ルアンダ の空港の天気 - METARとTAF

ルアンダ国際空港 ( FNLU / LAD ) - アンゴラ ルアンダ
飛行場実況気象(Metar)
観測時間02/18 00:00 WAT (02/17 23:00 UTC)
風向・風速南南東 6m/s
視程10km以上
天気現象
少しの雲 雲底高度 610m
全天の8割程度の雲 雲底高度 2130m
気温27℃
湿度84%
気圧1012hPa
METARFNLU 172300Z 16011KT 9999 FEW020 BKN070 27/24 Q1012
過去の天気等 Google飛行場航空写真 Wunderground天気予報

過去48時間のMETAR

飛行場予報(TAF)
発表時間: 2/17 18:00 WAT (2/17 17:00 UTC)
予報対象時間: 17日19時 WAT ~ 19日1時 WAT
風向・風速西南西 6m/s
視程9000m
少しの雲 雲底高度 700m
少しの積乱雲 雲底高度 760m
全天の4割程度の雲 雲底高度 1520m
17日22時 WAT ~ 18日2時 WAT に 確率 30% で一時的に
風向・風速南南西 4m/s
視程7000m
天気現象霧雨雨
全天の4割程度の雲 雲底高度 370m
全天の8割程度の雲 雲底高度 760m
18日4時 WAT ~ 18日6時 WAT に徐々に
風向・風速不定 2m/s
全天の4割程度の雲 雲底高度 460m
全天の8割程度の雲 雲底高度 610m
TAF FNLU 171700Z 1718/1824 24011KT 9000 FEW023 FEW025CB SCT050
PROB30 TEMPO 1721/1801 20008KT 7000 DZRA SCT012 BKN025
BECMG 1803/1805 VRB03KT SCT015 BKN020